sensor_id;sensor_type;location;lat;lon;timestamp;P1;durP1;ratioP1;P2;durP2;ratioP2
81952;SDS011;71454;55.476;14.282;2023-10-13T00:01:18;10.95;;;1.80;;
81952;SDS011;71454;55.476;14.282;2023-10-13T00:03:44;10.57;;;1.98;;
81952;SDS011;71454;55.476;14.282;2023-10-13T00:06:09;12.40;;;1.70;;
81952;SDS011;71454;55.476;14.282;2023-10-13T00:08:35;8.48;;;1.83;;
81952;SDS011;71454;55.476;14.282;2023-10-13T00:11:01;13.30;;;1.42;;
81952;SDS011;71454;55.476;14.282;2023-10-13T00:13:28;12.48;;;2.55;;
81952;SDS011;71454;55.476;14.282;2023-10-13T00:15:59;8.20;;;1.85;;
81952;SDS011;71454;55.476;14.282;2023-10-13T00:18:28;11.30;;;1.73;;
81952;SDS011;71454;55.476;14.282;2023-10-13T00:21:07;7.50;;;1.75;;
81952;SDS011;71454;55.476;14.282;2023-10-13T00:23:57;12.52;;;2.13;;
81952;SDS011;71454;55.476;14.282;2023-10-13T00:26:27;13.95;;;2.25;;
81952;SDS011;71454;55.476;14.282;2023-10-13T00:29:00;13.57;;;2.00;;
81952;SDS011;71454;55.476;14.282;2023-10-13T00:31:34;12.18;;;2.00;;
81952;SDS011;71454;55.476;14.282;2023-10-13T00:34:06;14.90;;;2.53;;
81952;SDS011;71454;55.476;14.282;2023-10-13T00:36:37;13.02;;;1.95;;
81952;SDS011;71454;55.476;14.282;2023-10-13T00:39:13;16.95;;;3.05;;
81952;SDS011;71454;55.476;14.282;2023-10-13T00:41:41;12.63;;;2.05;;
81952;SDS011;71454;55.476;14.282;2023-10-13T00:44:17;13.23;;;2.63;;
81952;SDS011;71454;55.476;14.282;2023-10-13T00:46:50;10.73;;;2.17;;
81952;SDS011;71454;55.476;14.282;2023-10-13T00:49:20;11.57;;;1.92;;
81952;SDS011;71454;55.476;14.282;2023-10-13T00:51:46;10.32;;;1.75;;
81952;SDS011;71454;55.476;14.282;2023-10-13T00:54:12;12.10;;;1.98;;
81952;SDS011;71454;55.476;14.282;2023-10-13T00:56:38;9.98;;;2.28;;
81952;SDS011;71454;55.476;14.282;2023-10-13T00:59:29;9.10;;;1.73;;
81952;SDS011;71454;55.476;14.282;2023-10-13T01:01:58;9.65;;;1.73;;
81952;SDS011;71454;55.476;14.282;2023-10-13T01:04:44;11.02;;;1.70;;
81952;SDS011;71454;55.476;14.282;2023-10-13T01:07:11;11.05;;;2.03;;
81952;SDS011;71454;55.476;14.282;2023-10-13T01:09:40;17.10;;;2.15;;
81952;SDS011;71454;55.476;14.282;2023-10-13T01:12:12;8.80;;;2.22;;
81952;SDS011;71454;55.476;14.282;2023-10-13T01:14:37;10.23;;;1.55;;
81952;SDS011;71454;55.476;14.282;2023-10-13T01:17:02;14.77;;;2.03;;
81952;SDS011;71454;55.476;14.282;2023-10-13T01:19:28;9.82;;;1.85;;
81952;SDS011;71454;55.476;14.282;2023-10-13T01:21:54;10.25;;;2.25;;
81952;SDS011;71454;55.476;14.282;2023-10-13T01:24:27;9.48;;;2.00;;
81952;SDS011;71454;55.476;14.282;2023-10-13T01:26:56;10.27;;;2.20;;
81952;SDS011;71454;55.476;14.282;2023-10-13T01:29:22;14.48;;;2.35;;
81952;SDS011;71454;55.476;14.282;2023-10-13T01:31:54;8.00;;;1.60;;
81952;SDS011;71454;55.476;14.282;2023-10-13T01:34:20;9.88;;;1.80;;
81952;SDS011;71454;55.476;14.282;2023-10-13T01:39:23;13.73;;;3.05;;
81952;SDS011;71454;55.476;14.282;2023-10-13T01:41:54;9.73;;;2.17;;
81952;SDS011;71454;55.476;14.282;2023-10-13T01:44:23;13.07;;;2.83;;
81952;SDS011;71454;55.476;14.282;2023-10-13T01:46:51;10.23;;;2.28;;
81952;SDS011;71454;55.476;14.282;2023-10-13T01:49:16;12.25;;;2.17;;
81952;SDS011;71454;55.476;14.282;2023-10-13T01:51:42;17.10;;;2.75;;
81952;SDS011;71454;55.476;14.282;2023-10-13T01:54:08;15.65;;;2.30;;
81952;SDS011;71454;55.476;14.282;2023-10-13T01:56:37;12.50;;;2.50;;
81952;SDS011;71454;55.476;14.282;2023-10-13T01:59:08;10.43;;;1.80;;
81952;SDS011;71454;55.476;14.282;2023-10-13T02:01:34;13.15;;;1.90;;
81952;SDS011;71454;55.476;14.282;2023-10-13T02:04:01;11.57;;;2.40;;
81952;SDS011;71454;55.476;14.282;2023-10-13T02:06:30;10.98;;;2.40;;
81952;SDS011;71454;55.476;14.282;2023-10-13T02:08:59;10.50;;;2.20;;
81952;SDS011;71454;55.476;14.282;2023-10-13T02:11:35;12.18;;;2.13;;
81952;SDS011;71454;55.476;14.282;2023-10-13T02:14:05;15.48;;;2.50;;
81952;SDS011;71454;55.476;14.282;2023-10-13T02:16:31;11.68;;;2.00;;
81952;SDS011;71454;55.476;14.282;2023-10-13T02:18:57;11.48;;;1.98;;
81952;SDS011;71454;55.476;14.282;2023-10-13T02:21:28;10.98;;;2.33;;
81952;SDS011;71454;55.476;14.282;2023-10-13T02:23:56;15.65;;;2.35;;
81952;SDS011;71454;55.476;14.282;2023-10-13T02:26:25;16.42;;;2.92;;
81952;SDS011;71454;55.476;14.282;2023-10-13T02:29:00;12.35;;;2.00;;
81952;SDS011;71454;55.476;14.282;2023-10-13T02:31:36;13.40;;;1.95;;
81952;SDS011;71454;55.476;14.282;2023-10-13T02:34:02;12.80;;;2.00;;
81952;SDS011;71454;55.476;14.282;2023-10-13T02:36:33;13.68;;;1.67;;
81952;SDS011;71454;55.476;14.282;2023-10-13T02:39:12;12.27;;;2.30;;
81952;SDS011;71454;55.476;14.282;2023-10-13T02:41:39;11.48;;;1.92;;
81952;SDS011;71454;55.476;14.282;2023-10-13T02:44:06;13.95;;;1.85;;
81952;SDS011;71454;55.476;14.282;2023-10-13T02:46:36;11.18;;;2.00;;
81952;SDS011;71454;55.476;14.282;2023-10-13T02:49:04;9.00;;;2.20;;
81952;SDS011;71454;55.476;14.282;2023-10-13T02:51:38;12.13;;;1.95;;
81952;SDS011;71454;55.476;14.282;2023-10-13T02:54:07;11.25;;;1.75;;
81952;SDS011;71454;55.476;14.282;2023-10-13T02:56:37;13.02;;;1.83;;
81952;SDS011;71454;55.476;14.282;2023-10-13T02:59:14;13.40;;;2.10;;
81952;SDS011;71454;55.476;14.282;2023-10-13T03:01:40;11.63;;;2.47;;
81952;SDS011;71454;55.476;14.282;2023-10-13T03:04:05;9.45;;;1.80;;
81952;SDS011;71454;55.476;14.282;2023-10-13T03:06:34;9.35;;;1.60;;
81952;SDS011;71454;55.476;14.282;2023-10-13T03:09:00;13.88;;;1.95;;
81952;SDS011;71454;55.476;14.282;2023-10-13T03:11:39;10.35;;;2.33;;
81952;SDS011;71454;55.476;14.282;2023-10-13T03:14:13;12.10;;;1.73;;
81952;SDS011;71454;55.476;14.282;2023-10-13T03:16:49;11.10;;;2.45;;
81952;SDS011;71454;55.476;14.282;2023-10-13T03:19:17;14.45;;;2.00;;
81952;SDS011;71454;55.476;14.282;2023-10-13T03:21:46;10.05;;;1.73;;
81952;SDS011;71454;55.476;14.282;2023-10-13T03:24:22;11.48;;;2.17;;
81952;SDS011;71454;55.476;14.282;2023-10-13T03:26:58;12.15;;;1.77;;
81952;SDS011;71454;55.476;14.282;2023-10-13T03:29:35;11.10;;;2.05;;
81952;SDS011;71454;55.476;14.282;2023-10-13T03:32:02;8.35;;;2.30;;
81952;SDS011;71454;55.476;14.282;2023-10-13T03:34:32;11.30;;;1.83;;
81952;SDS011;71454;55.476;14.282;2023-10-13T03:36:59;9.00;;;2.22;;
81952;SDS011;71454;55.476;14.282;2023-10-13T03:39:25;7.80;;;1.50;;
81952;SDS011;71454;55.476;14.282;2023-10-13T03:41:55;12.95;;;1.73;;
81952;SDS011;71454;55.476;14.282;2023-10-13T03:44:22;12.07;;;1.98;;
81952;SDS011;71454;55.476;14.282;2023-10-13T03:46:48;9.45;;;1.60;;
81952;SDS011;71454;55.476;14.282;2023-10-13T03:49:14;6.95;;;1.50;;
81952;SDS011;71454;55.476;14.282;2023-10-13T03:51:45;11.52;;;1.70;;
81952;SDS011;71454;55.476;14.282;2023-10-13T03:54:13;10.07;;;1.63;;
81952;SDS011;71454;55.476;14.282;2023-10-13T03:56:41;8.57;;;1.83;;
81952;SDS011;71454;55.476;14.282;2023-10-13T03:59:09;9.07;;;1.38;;
81952;SDS011;71454;55.476;14.282;2023-10-13T04:01:42;13.20;;;2.05;;
81952;SDS011;71454;55.476;14.282;2023-10-13T04:04:08;9.77;;;1.88;;
81952;SDS011;71454;55.476;14.282;2023-10-13T04:06:35;8.20;;;1.50;;
81952;SDS011;71454;55.476;14.282;2023-10-13T04:09:15;12.15;;;1.80;;
81952;SDS011;71454;55.476;14.282;2023-10-13T04:11:59;9.57;;;1.60;;
81952;SDS011;71454;55.476;14.282;2023-10-13T04:14:29;13.48;;;1.75;;
81952;SDS011;71454;55.476;14.282;2023-10-13T04:17:13;8.10;;;1.55;;
81952;SDS011;71454;55.476;14.282;2023-10-13T04:19:42;8.57;;;2.25;;
81952;SDS011;71454;55.476;14.282;2023-10-13T04:22:26;12.40;;;2.45;;
81952;SDS011;71454;55.476;14.282;2023-10-13T04:25:20;13.20;;;2.53;;
81952;SDS011;71454;55.476;14.282;2023-10-13T04:28:06;8.52;;;2.13;;
81952;SDS011;71454;55.476;14.282;2023-10-13T04:30:42;10.13;;;2.20;;
81952;SDS011;71454;55.476;14.282;2023-10-13T04:33:25;11.45;;;1.65;;
81952;SDS011;71454;55.476;14.282;2023-10-13T04:36:08;9.13;;;1.30;;
81952;SDS011;71454;55.476;14.282;2023-10-13T04:38:54;11.93;;;1.92;;
81952;SDS011;71454;55.476;14.282;2023-10-13T04:41:34;11.32;;;1.70;;
81952;SDS011;71454;55.476;14.282;2023-10-13T04:44:06;7.85;;;1.88;;
81952;SDS011;71454;55.476;14.282;2023-10-13T04:46:50;7.68;;;1.80;;
81952;SDS011;71454;55.476;14.282;2023-10-13T04:49:25;11.32;;;2.00;;
81952;SDS011;71454;55.476;14.282;2023-10-13T04:51:51;9.15;;;1.90;;
81952;SDS011;71454;55.476;14.282;2023-10-13T04:54:27;14.65;;;2.20;;
81952;SDS011;71454;55.476;14.282;2023-10-13T04:57:16;8.48;;;1.65;;
81952;SDS011;71454;55.476;14.282;2023-10-13T04:59:58;9.88;;;1.50;;
81952;SDS011;71454;55.476;14.282;2023-10-13T05:02:43;9.15;;;1.52;;
81952;SDS011;71454;55.476;14.282;2023-10-13T05:05:27;10.35;;;2.47;;
81952;SDS011;71454;55.476;14.282;2023-10-13T05:08:17;8.90;;;1.60;;
81952;SDS011;71454;55.476;14.282;2023-10-13T05:11:05;8.73;;;1.90;;
81952;SDS011;71454;55.476;14.282;2023-10-13T05:13:49;9.70;;;1.90;;
81952;SDS011;71454;55.476;14.282;2023-10-13T05:16:32;8.95;;;1.70;;
81952;SDS011;71454;55.476;14.282;2023-10-13T05:19:16;6.53;;;1.80;;
81952;SDS011;71454;55.476;14.282;2023-10-13T05:22:00;10.43;;;1.98;;
81952;SDS011;71454;55.476;14.282;2023-10-13T05:24:44;9.63;;;1.80;;
81952;SDS011;71454;55.476;14.282;2023-10-13T05:27:28;10.90;;;2.17;;
81952;SDS011;71454;55.476;14.282;2023-10-13T05:30:12;11.15;;;2.15;;
81952;SDS011;71454;55.476;14.282;2023-10-13T05:32:56;7.60;;;1.50;;
81952;SDS011;71454;55.476;14.282;2023-10-13T05:35:40;12.55;;;1.92;;
81952;SDS011;71454;55.476;14.282;2023-10-13T05:38:24;9.40;;;1.92;;
81952;SDS011;71454;55.476;14.282;2023-10-13T05:41:08;10.63;;;1.60;;
81952;SDS011;71454;55.476;14.282;2023-10-13T05:43:52;11.73;;;1.70;;
81952;SDS011;71454;55.476;14.282;2023-10-13T05:46:36;7.43;;;1.48;;
81952;SDS011;71454;55.476;14.282;2023-10-13T05:49:04;8.55;;;1.50;;
81952;SDS011;71454;55.476;14.282;2023-10-13T05:51:34;10.15;;;1.60;;
81952;SDS011;71454;55.476;14.282;2023-10-13T05:54:05;8.48;;;1.63;;
81952;SDS011;71454;55.476;14.282;2023-10-13T05:59:27;6.85;;;1.40;;
81952;SDS011;71454;55.476;14.282;2023-10-13T06:02:16;13.68;;;2.38;;
81952;SDS011;71454;55.476;14.282;2023-10-13T06:05:07;11.25;;;1.65;;
81952;SDS011;71454;55.476;14.282;2023-10-13T06:07:55;10.38;;;1.85;;
81952;SDS011;71454;55.476;14.282;2023-10-13T06:10:41;8.55;;;2.83;;
81952;SDS011;71454;55.476;14.282;2023-10-13T06:13:25;10.50;;;1.92;;
81952;SDS011;71454;55.476;14.282;2023-10-13T06:16:10;9.73;;;1.65;;
81952;SDS011;71454;55.476;14.282;2023-10-13T06:18:56;7.40;;;1.88;;
81952;SDS011;71454;55.476;14.282;2023-10-13T06:21:40;13.40;;;2.33;;
81952;SDS011;71454;55.476;14.282;2023-10-13T06:24:24;13.15;;;1.98;;
81952;SDS011;71454;55.476;14.282;2023-10-13T06:27:08;9.90;;;1.60;;
81952;SDS011;71454;55.476;14.282;2023-10-13T06:29:52;12.32;;;2.20;;
81952;SDS011;71454;55.476;14.282;2023-10-13T06:32:20;10.20;;;2.15;;
81952;SDS011;71454;55.476;14.282;2023-10-13T06:34:50;13.07;;;1.90;;
81952;SDS011;71454;55.476;14.282;2023-10-13T06:37:23;9.27;;;1.67;;
81952;SDS011;71454;55.476;14.282;2023-10-13T06:39:55;10.35;;;1.55;;
81952;SDS011;71454;55.476;14.282;2023-10-13T06:44:57;8.18;;;1.25;;
81952;SDS011;71454;55.476;14.282;2023-10-13T06:47:25;10.68;;;1.75;;
81952;SDS011;71454;55.476;14.282;2023-10-13T06:49:52;10.02;;;2.13;;
81952;SDS011;71454;55.476;14.282;2023-10-13T06:52:19;11.52;;;2.25;;
81952;SDS011;71454;55.476;14.282;2023-10-13T06:54:49;9.98;;;0.95;;
81952;SDS011;71454;55.476;14.282;2023-10-13T06:57:15;6.15;;;1.02;;
81952;SDS011;71454;55.476;14.282;2023-10-13T06:59:45;11.05;;;1.35;;
81952;SDS011;71454;55.476;14.282;2023-10-13T07:02:14;8.50;;;1.08;;
81952;SDS011;71454;55.476;14.282;2023-10-13T07:04:48;9.48;;;1.25;;
81952;SDS011;71454;55.476;14.282;2023-10-13T07:07:16;8.25;;;1.38;;
81952;SDS011;71454;55.476;14.282;2023-10-13T07:09:42;7.55;;;1.20;;
81952;SDS011;71454;55.476;14.282;2023-10-13T07:12:23;9.15;;;1.30;;
81952;SDS011;71454;55.476;14.282;2023-10-13T07:14:51;7.07;;;1.23;;
81952;SDS011;71454;55.476;14.282;2023-10-13T07:17:17;11.27;;;1.40;;
81952;SDS011;71454;55.476;14.282;2023-10-13T07:19:52;10.02;;;1.30;;
81952;SDS011;71454;55.476;14.282;2023-10-13T07:22:18;8.23;;;1.42;;
81952;SDS011;71454;55.476;14.282;2023-10-13T07:24:48;11.38;;;1.40;;
81952;SDS011;71454;55.476;14.282;2023-10-13T07:27:22;11.70;;;1.50;;
81952;SDS011;71454;55.476;14.282;2023-10-13T07:29:52;5.43;;;1.05;;
81952;SDS011;71454;55.476;14.282;2023-10-13T07:32:43;7.93;;;1.40;;
81952;SDS011;71454;55.476;14.282;2023-10-13T07:35:15;7.68;;;1.33;;
81952;SDS011;71454;55.476;14.282;2023-10-13T07:37:44;9.07;;;1.65;;
81952;SDS011;71454;55.476;14.282;2023-10-13T07:40:17;11.20;;;1.38;;
81952;SDS011;71454;55.476;14.282;2023-10-13T07:42:55;9.95;;;1.40;;
81952;SDS011;71454;55.476;14.282;2023-10-13T07:45:29;9.25;;;1.42;;
81952;SDS011;71454;55.476;14.282;2023-10-13T07:50:37;9.80;;;1.58;;
81952;SDS011;71454;55.476;14.282;2023-10-13T07:53:05;8.15;;;1.67;;
81952;SDS011;71454;55.476;14.282;2023-10-13T07:55:44;9.23;;;1.45;;
81952;SDS011;71454;55.476;14.282;2023-10-13T07:58:13;7.55;;;1.58;;
81952;SDS011;71454;55.476;14.282;2023-10-13T08:00:41;9.27;;;1.55;;
81952;SDS011;71454;55.476;14.282;2023-10-13T08:03:06;13.60;;;3.90;;
81952;SDS011;71454;55.476;14.282;2023-10-13T08:05:55;8.40;;;1.55;;
81952;SDS011;71454;55.476;14.282;2023-10-13T08:08:35;8.32;;;1.42;;
81952;SDS011;71454;55.476;14.282;2023-10-13T08:11:05;11.48;;;1.48;;
81952;SDS011;71454;55.476;14.282;2023-10-13T08:13:49;11.15;;;1.52;;
81952;SDS011;71454;55.476;14.282;2023-10-13T08:16:33;13.68;;;2.17;;
81952;SDS011;71454;55.476;14.282;2023-10-13T08:19:24;13.75;;;2.13;;
81952;SDS011;71454;55.476;14.282;2023-10-13T08:22:04;12.48;;;2.95;;
81952;SDS011;71454;55.476;14.282;2023-10-13T08:24:49;7.35;;;1.70;;
81952;SDS011;71454;55.476;14.282;2023-10-13T08:27:19;12.10;;;1.83;;
81952;SDS011;71454;55.476;14.282;2023-10-13T08:30:02;10.95;;;2.50;;
81952;SDS011;71454;55.476;14.282;2023-10-13T08:32:46;14.55;;;2.00;;
81952;SDS011;71454;55.476;14.282;2023-10-13T08:35:22;9.93;;;1.75;;
81952;SDS011;71454;55.476;14.282;2023-10-13T08:37:58;9.90;;;1.77;;
81952;SDS011;71454;55.476;14.282;2023-10-13T08:40:26;11.48;;;1.80;;
81952;SDS011;71454;55.476;14.282;2023-10-13T08:43:21;14.52;;;2.25;;
81952;SDS011;71454;55.476;14.282;2023-10-13T08:45:53;11.32;;;2.08;;
81952;SDS011;71454;55.476;14.282;2023-10-13T08:48:24;12.45;;;2.00;;
81952;SDS011;71454;55.476;14.282;2023-10-13T08:50:57;11.40;;;2.50;;
81952;SDS011;71454;55.476;14.282;2023-10-13T08:53:29;10.38;;;2.63;;
81952;SDS011;71454;55.476;14.282;2023-10-13T08:56:10;18.35;;;2.47;;
81952;SDS011;71454;55.476;14.282;2023-10-13T08:58:40;13.75;;;2.97;;
81952;SDS011;71454;55.476;14.282;2023-10-13T09:04:09;13.05;;;2.20;;
81952;SDS011;71454;55.476;14.282;2023-10-13T09:06:49;11.90;;;2.58;;
81952;SDS011;71454;55.476;14.282;2023-10-13T09:09:51;10.32;;;2.47;;
81952;SDS011;71454;55.476;14.282;2023-10-13T09:12:20;18.75;;;3.42;;
81952;SDS011;71454;55.476;14.282;2023-10-13T09:15:08;14.18;;;3.60;;
81952;SDS011;71454;55.476;14.282;2023-10-13T09:17:44;20.92;;;4.38;;
81952;SDS011;71454;55.476;14.282;2023-10-13T09:20:31;13.88;;;3.03;;
81952;SDS011;71454;55.476;14.282;2023-10-13T09:23:13;10.05;;;3.10;;
81952;SDS011;71454;55.476;14.282;2023-10-13T09:25:50;17.90;;;3.30;;
81952;SDS011;71454;55.476;14.282;2023-10-13T09:28:34;20.40;;;4.57;;
81952;SDS011;71454;55.476;14.282;2023-10-13T09:31:02;14.80;;;4.10;;
81952;SDS011;71454;55.476;14.282;2023-10-13T09:33:32;15.35;;;3.15;;
81952;SDS011;71454;55.476;14.282;2023-10-13T09:36:01;21.38;;;4.18;;
81952;SDS011;71454;55.476;14.282;2023-10-13T09:38:30;15.70;;;3.83;;
81952;SDS011;71454;55.476;14.282;2023-10-13T09:40:57;14.95;;;4.57;;
81952;SDS011;71454;55.476;14.282;2023-10-13T09:43:26;23.00;;;5.10;;
81952;SDS011;71454;55.476;14.282;2023-10-13T09:45:58;20.48;;;5.85;;
81952;SDS011;71454;55.476;14.282;2023-10-13T09:51:04;27.63;;;8.10;;
81952;SDS011;71454;55.476;14.282;2023-10-13T09:53:33;22.45;;;8.23;;
81952;SDS011;71454;55.476;14.282;2023-10-13T09:56:05;20.98;;;8.57;;
81952;SDS011;71454;55.476;14.282;2023-10-13T09:58:42;22.65;;;8.55;;
81952;SDS011;71454;55.476;14.282;2023-10-13T10:01:17;19.15;;;7.13;;
81952;SDS011;71454;55.476;14.282;2023-10-13T10:04:18;24.42;;;7.40;;
81952;SDS011;71454;55.476;14.282;2023-10-13T10:06:57;22.70;;;7.22;;
81952;SDS011;71454;55.476;14.282;2023-10-13T10:09:27;20.42;;;6.85;;
81952;SDS011;71454;55.476;14.282;2023-10-13T10:18:02;15.07;;;5.03;;
81952;SDS011;71454;55.476;14.282;2023-10-13T10:23:05;16.05;;;6.50;;
81952;SDS011;71454;55.476;14.282;2023-10-13T10:25:47;17.95;;;6.47;;
81952;SDS011;71454;55.476;14.282;2023-10-13T10:28:16;16.35;;;6.05;;
81952;SDS011;71454;55.476;14.282;2023-10-13T10:30:42;18.52;;;7.10;;
81952;SDS011;71454;55.476;14.282;2023-10-13T10:33:09;14.40;;;6.22;;
81952;SDS011;71454;55.476;14.282;2023-10-13T10:35:41;15.10;;;6.72;;
81952;SDS011;71454;55.476;14.282;2023-10-13T10:40:50;15.35;;;6.25;;
81952;SDS011;71454;55.476;14.282;2023-10-13T10:43:21;14.57;;;6.38;;
81952;SDS011;71454;55.476;14.282;2023-10-13T10:45:51;16.15;;;7.22;;
81952;SDS011;71454;55.476;14.282;2023-10-13T10:48:16;17.45;;;7.35;;
81952;SDS011;71454;55.476;14.282;2023-10-13T10:50:52;19.17;;;7.18;;
81952;SDS011;71454;55.476;14.282;2023-10-13T10:55:46;17.23;;;6.97;;
81952;SDS011;71454;55.476;14.282;2023-10-13T10:58:12;17.52;;;8.05;;
81952;SDS011;71454;55.476;14.282;2023-10-13T11:01:03;17.33;;;7.55;;
81952;SDS011;71454;55.476;14.282;2023-10-13T11:03:55;20.02;;;8.27;;
81952;SDS011;71454;55.476;14.282;2023-10-13T11:06:27;18.55;;;8.00;;
81952;SDS011;71454;55.476;14.282;2023-10-13T11:09:02;24.48;;;8.68;;
81952;SDS011;71454;55.476;14.282;2023-10-13T11:11:32;22.55;;;9.43;;
81952;SDS011;71454;55.476;14.282;2023-10-13T11:14:00;24.02;;;9.48;;
81952;SDS011;71454;55.476;14.282;2023-10-13T11:16:47;21.10;;;9.60;;
81952;SDS011;71454;55.476;14.282;2023-10-13T11:19:22;19.55;;;9.43;;
81952;SDS011;71454;55.476;14.282;2023-10-13T11:22:09;23.17;;;9.05;;
81952;SDS011;71454;55.476;14.282;2023-10-13T11:24:55;23.67;;;9.18;;
81952;SDS011;71454;55.476;14.282;2023-10-13T11:27:27;24.13;;;9.05;;
81952;SDS011;71454;55.476;14.282;2023-10-13T11:30:23;31.40;;;9.93;;
81952;SDS011;71454;55.476;14.282;2023-10-13T11:33:06;26.15;;;9.68;;
81952;SDS011;71454;55.476;14.282;2023-10-13T11:35:39;26.80;;;9.38;;
81952;SDS011;71454;55.476;14.282;2023-10-13T11:38:14;23.77;;;9.10;;
81952;SDS011;71454;55.476;14.282;2023-10-13T11:40:40;31.13;;;10.23;;
81952;SDS011;71454;55.476;14.282;2023-10-13T11:43:09;28.83;;;9.80;;
81952;SDS011;71454;55.476;14.282;2023-10-13T11:45:42;26.92;;;10.88;;
81952;SDS011;71454;55.476;14.282;2023-10-13T11:48:39;22.13;;;9.48;;
81952;SDS011;71454;55.476;14.282;2023-10-13T11:51:12;21.80;;;9.38;;
81952;SDS011;71454;55.476;14.282;2023-10-13T11:53:57;21.83;;;9.07;;
81952;SDS011;71454;55.476;14.282;2023-10-13T11:56:23;22.77;;;9.55;;
81952;SDS011;71454;55.476;14.282;2023-10-13T11:58:49;22.38;;;9.63;;
81952;SDS011;71454;55.476;14.282;2023-10-13T12:01:15;22.25;;;9.55;;
81952;SDS011;71454;55.476;14.282;2023-10-13T12:03:47;22.63;;;10.27;;
81952;SDS011;71454;55.476;14.282;2023-10-13T12:09:02;25.60;;;8.95;;
81952;SDS011;71454;55.476;14.282;2023-10-13T12:11:46;23.48;;;9.80;;
81952;SDS011;71454;55.476;14.282;2023-10-13T12:14:14;22.30;;;9.25;;
81952;SDS011;71454;55.476;14.282;2023-10-13T12:16:44;25.77;;;9.00;;
81952;SDS011;71454;55.476;14.282;2023-10-13T12:19:16;25.52;;;9.77;;
81952;SDS011;71454;55.476;14.282;2023-10-13T12:21:42;24.15;;;9.23;;
81952;SDS011;71454;55.476;14.282;2023-10-13T12:24:14;25.75;;;9.35;;
81952;SDS011;71454;55.476;14.282;2023-10-13T12:26:58;21.23;;;8.77;;
81952;SDS011;71454;55.476;14.282;2023-10-13T12:29:23;22.58;;;9.90;;
81952;SDS011;71454;55.476;14.282;2023-10-13T12:31:53;24.70;;;9.48;;
81952;SDS011;71454;55.476;14.282;2023-10-13T12:34:37;19.58;;;9.35;;
81952;SDS011;71454;55.476;14.282;2023-10-13T12:37:29;19.13;;;8.38;;
81952;SDS011;71454;55.476;14.282;2023-10-13T12:40:02;22.58;;;8.98;;
81952;SDS011;71454;55.476;14.282;2023-10-13T12:42:47;19.52;;;7.72;;
81952;SDS011;71454;55.476;14.282;2023-10-13T12:45:31;19.50;;;8.32;;
81952;SDS011;71454;55.476;14.282;2023-10-13T12:48:15;24.23;;;8.07;;
81952;SDS011;71454;55.476;14.282;2023-10-13T12:51:00;25.20;;;9.23;;
81952;SDS011;71454;55.476;14.282;2023-10-13T12:53:53;19.20;;;7.45;;
81952;SDS011;71454;55.476;14.282;2023-10-13T12:56:19;17.13;;;7.47;;
81952;SDS011;71454;55.476;14.282;2023-10-13T12:58:54;21.15;;;7.28;;
81952;SDS011;71454;55.476;14.282;2023-10-13T13:01:20;27.13;;;9.48;;
81952;SDS011;71454;55.476;14.282;2023-10-13T13:03:47;18.98;;;8.20;;
81952;SDS011;71454;55.476;14.282;2023-10-13T13:06:19;17.98;;;6.82;;
81952;SDS011;71454;55.476;14.282;2023-10-13T13:08:55;19.80;;;6.75;;
81952;SDS011;71454;55.476;14.282;2023-10-13T13:11:21;18.17;;;7.95;;
81952;SDS011;71454;55.476;14.282;2023-10-13T13:13:47;18.55;;;7.60;;
81952;SDS011;71454;55.476;14.282;2023-10-13T13:16:13;21.83;;;7.30;;
81952;SDS011;71454;55.476;14.282;2023-10-13T13:18:39;17.30;;;7.18;;
81952;SDS011;71454;55.476;14.282;2023-10-13T13:21:05;26.83;;;8.52;;
81952;SDS011;71454;55.476;14.282;2023-10-13T13:23:37;24.48;;;7.40;;
81952;SDS011;71454;55.476;14.282;2023-10-13T13:26:07;22.00;;;7.70;;
81952;SDS011;71454;55.476;14.282;2023-10-13T13:28:47;21.98;;;8.27;;
81952;SDS011;71454;55.476;14.282;2023-10-13T13:31:19;19.52;;;9.05;;
81952;SDS011;71454;55.476;14.282;2023-10-13T13:33:54;19.95;;;7.43;;
81952;SDS011;71454;55.476;14.282;2023-10-13T13:36:20;17.77;;;7.45;;
81952;SDS011;71454;55.476;14.282;2023-10-13T13:38:47;15.38;;;7.40;;
81952;SDS011;71454;55.476;14.282;2023-10-13T13:41:14;18.38;;;7.72;;
81952;SDS011;71454;55.476;14.282;2023-10-13T13:43:42;18.70;;;6.60;;
81952;SDS011;71454;55.476;14.282;2023-10-13T13:46:26;14.82;;;6.05;;
81952;SDS011;71454;55.476;14.282;2023-10-13T13:49:06;12.80;;;5.28;;
81952;SDS011;71454;55.476;14.282;2023-10-13T13:51:41;15.13;;;5.18;;
81952;SDS011;71454;55.476;14.282;2023-10-13T13:54:07;21.92;;;6.22;;
81952;SDS011;71454;55.476;14.282;2023-10-13T13:56:32;21.42;;;9.30;;
81952;SDS011;71454;55.476;14.282;2023-10-13T13:59:03;24.75;;;9.20;;
81952;SDS011;71454;55.476;14.282;2023-10-13T14:01:33;18.30;;;7.78;;
81952;SDS011;71454;55.476;14.282;2023-10-13T14:04:01;14.50;;;5.13;;
81952;SDS011;71454;55.476;14.282;2023-10-13T14:06:31;28.58;;;14.00;;
81952;SDS011;71454;55.476;14.282;2023-10-13T14:08:58;17.38;;;8.82;;
81952;SDS011;71454;55.476;14.282;2023-10-13T14:11:28;17.02;;;6.75;;
81952;SDS011;71454;55.476;14.282;2023-10-13T14:14:11;16.13;;;6.50;;
81952;SDS011;71454;55.476;14.282;2023-10-13T14:16:49;14.60;;;5.82;;
81952;SDS011;71454;55.476;14.282;2023-10-13T14:19:15;17.85;;;9.70;;
81952;SDS011;71454;55.476;14.282;2023-10-13T14:21:45;12.95;;;6.32;;
81952;SDS011;71454;55.476;14.282;2023-10-13T14:24:18;13.52;;;5.80;;
81952;SDS011;71454;55.476;14.282;2023-10-13T14:26:52;14.65;;;6.30;;
81952;SDS011;71454;55.476;14.282;2023-10-13T14:29:20;15.75;;;5.35;;
81952;SDS011;71454;55.476;14.282;2023-10-13T14:31:46;17.77;;;7.07;;
81952;SDS011;71454;55.476;14.282;2023-10-13T14:34:14;12.90;;;5.53;;
81952;SDS011;71454;55.476;14.282;2023-10-13T14:36:42;16.33;;;6.90;;
81952;SDS011;71454;55.476;14.282;2023-10-13T14:39:13;19.55;;;6.82;;
81952;SDS011;71454;55.476;14.282;2023-10-13T14:41:39;15.38;;;4.90;;
81952;SDS011;71454;55.476;14.282;2023-10-13T14:44:05;14.80;;;4.93;;
81952;SDS011;71454;55.476;14.282;2023-10-13T14:46:31;11.88;;;4.97;;
81952;SDS011;71454;55.476;14.282;2023-10-13T14:49:00;15.90;;;6.60;;
81952;SDS011;71454;55.476;14.282;2023-10-13T14:51:27;12.77;;;5.85;;
81952;SDS011;71454;55.476;14.282;2023-10-13T14:53:58;15.32;;;6.40;;
81952;SDS011;71454;55.476;14.282;2023-10-13T14:56:29;12.80;;;6.18;;
81952;SDS011;71454;55.476;14.282;2023-10-13T14:58:58;15.60;;;7.15;;
81952;SDS011;71454;55.476;14.282;2023-10-13T15:01:23;12.55;;;6.07;;
81952;SDS011;71454;55.476;14.282;2023-10-13T15:03:52;16.20;;;9.55;;
81952;SDS011;71454;55.476;14.282;2023-10-13T15:06:23;13.52;;;6.20;;
81952;SDS011;71454;55.476;14.282;2023-10-13T15:08:50;13.75;;;5.20;;
81952;SDS011;71454;55.476;14.282;2023-10-13T15:11:17;14.52;;;5.70;;
81952;SDS011;71454;55.476;14.282;2023-10-13T15:13:45;15.93;;;5.38;;
81952;SDS011;71454;55.476;14.282;2023-10-13T15:16:20;12.50;;;5.10;;
81952;SDS011;71454;55.476;14.282;2023-10-13T15:18:50;13.48;;;5.30;;
81952;SDS011;71454;55.476;14.282;2023-10-13T15:21:20;12.40;;;5.57;;
81952;SDS011;71454;55.476;14.282;2023-10-13T15:23:51;13.57;;;5.70;;
81952;SDS011;71454;55.476;14.282;2023-10-13T15:26:18;13.95;;;5.50;;
81952;SDS011;71454;55.476;14.282;2023-10-13T15:28:46;17.88;;;6.07;;
81952;SDS011;71454;55.476;14.282;2023-10-13T15:31:18;18.83;;;5.70;;
81952;SDS011;71454;55.476;14.282;2023-10-13T15:34:02;17.42;;;5.90;;